Danmark — OXDK — position and weather

sailwx.info

Track history (hours):
 
Tides and Currents Weather Stations Pressure Air Temp Water Temp Dewpoint Dewpoint Depression Visibility Wind Speed Wind Dir Waves Ship Positions

Danmark (Denmark)

Last reported at 2020-Mar-23 08:01 UTC. Time now 2020-Apr-06 12:24 UTC.
Position N 57°26' E 010°33'.
Warning: this ship's position is 14 days out of date.

Length 60 m; beam 10 m; draft 5 m.

Type: Sailing vessel. MMSI: 219500000.

Date/timePositionNaut miles runAvg speedWind from/ knotsBaromVisibWave heightAir tempDewpointWater temp
2020-Mar-23 08:01N 57°26' E 010°33'7 2.8
2020-Mar-23 05:31N 57°20' E 010°41'5 5.3
2020-Mar-23 04:31N 57°15' E 010°43'49 5.8
2020-Mar-22 20:00N 56°27' E 011°00'4 7.3
2020-Mar-22 19:30N 56°23' E 011°00'6 6.4
2020-Mar-22 18:31N 56°17' E 010°55'7 6.6
2020-Mar-22 17:31N 56°12' E 010°48'6 4.2
2020-Mar-22 16:01N 56°10' E 010°37'3 0.6
2020-Mar-22 11:50N 56°13' E 010°37'0 0.0
2020-Mar-22 08:29N 56°13' E 010°37'0 0.0
2020-Mar-22 05:59N 56°13' E 010°37'0 0.0
2020-Mar-22 04:59N 56°13' E 010°37'0 0.0
2020-Mar-22 03:26N 56°13' E 010°37'0 0.0
2020-Mar-22 02:29N 56°13' E 010°37'0 0.0
2020-Mar-21 23:29N 56°12' E 010°37'0 0.0
2020-Mar-21 22:26N 56°12' E 010°37'0 0.0
2020-Mar-21 20:29N 56°12' E 010°37'0 0.0
2020-Mar-21 19:29N 56°12' E 010°37'0 0.0
2020-Mar-21 17:59N 56°12' E 010°37'0 0.0
2020-Mar-21 17:29N 56°12' E 010°37'0 0.0
2020-Mar-21 16:29N 56°12' E 010°37'0 0.0
2020-Mar-21 13:26N 56°12' E 010°37'0 0.0
2020-Mar-21 11:26N 56°12' E 010°37'0 0.0
2020-Mar-21 09:26N 56°12' E 010°37'0 0.0
2020-Mar-21 02:59N 56°12' E 010°37'0 0.0
2020-Mar-21 02:29N 56°12' E 010°37'0 0.0
2020-Mar-21 01:59N 56°12' E 010°37'0 0.0
2020-Mar-21 01:29N 56°12' E 010°37'0 0.0
2020-Mar-21 00:59N 56°12' E 010°37'0 0.0
2020-Mar-20 23:59N 56°12' E 010°37'0 0.0
2020-Mar-20 22:59N 56°12' E 010°37'0 0.0
2020-Mar-20 21:29N 56°12' E 010°37'1 2.0
2020-Mar-20 21:01N 56°12' E 010°36'3 5.0
2020-Mar-20 20:30N 56°09' E 010°37'4 4.5
2020-Mar-20 19:30N 56°10' E 010°45'3 6.4
2020-Mar-20 19:00N 56°13' E 010°48'14 6.8
2020-Mar-20 17:01N 56°24' E 011°00'7 7.1
2020-Mar-20 15:59N 56°32' E 010°59'44 6.4
2020-Mar-20 09:00N 57°15' E 010°42'3 5.6
2020-Mar-20 08:30N 57°18' E 010°42'16 6.3
2020-Mar-20 06:00N 57°34' E 010°44'3 6.9
2020-Mar-20 05:31N 57°37' E 010°44'12 4.7
2020-Mar-20 03:00N 57°45' E 010°28'3 6.2
2020-Mar-20 02:30N 57°44' E 010°23'21 8.3
2020-Mar-19 23:55N 57°35' E 009°46'1110.3
2020-Mar-19 22:49N 57°30' E 009°28'7 9.9
2020-Mar-19 22:09N 57°26' E 009°17'2410.6
2020-Mar-19 19:55N 57°15' E 008°39'410.6
2020-Mar-19 19:30N 57°12' E 008°32'27 8.7
2020-Mar-19 16:26N 56°50' E 008°06'242 6.1
2020-Mar-18 00:32N 53°35' E 003°54'37 8.9
2020-Mar-17 20:22N 53°02' E 003°25'19 7.9
2020-Mar-17 18:00N 52°45' E 003°12'9 6.1
2020-Mar-17 16:30N 52°37' E 003°05'21 6.1
2020-Mar-17 13:01N 52°18' E 002°49'20 8.1
2020-Mar-17 10:30N 51°59' E 002°41'9 8.9
2020-Mar-17 09:30N 51°50' E 002°38'22 7.4
2020-Mar-17 06:31N 51°31' E 002°19'4 8.3
2020-Mar-17 06:01N 51°27' E 002°16'22 8.7
2020-Mar-17 03:30N 51°10' E 001°56'17 6.9
2020-Mar-17 01:00N 50°59' E 001°35'12 6.0
2020-Mar-16 23:00N 50°48' E 001°26'10 6.5
2020-Mar-16 21:30N 50°40' E 001°17'14 7.2
2020-Mar-16 19:30N 50°31' E 000°60'12 5.9
2020-Mar-16 17:31N 50°26' E 000°43'9 3.4
2020-Mar-16 14:57N 50°24' E 000°30'10 3.0
2020-Mar-16 11:48N 50°22' E 000°15'26 5.4
2020-Mar-16 07:00N 50°16' W 000°24'3 5.1
2020-Mar-16 06:27N 50°15' W 000°28'6 5.0
2020-Mar-16 05:14N 50°14' W 000°37'53 7.9
2020-Mar-15 22:30N 50°20' W 001°60'19 7.0
2020-Mar-15 19:47N 50°22' W 002°30'34 5.9
2020-Mar-15 14:00N 50°26' W 003°23'6 1.8
2020-Mar-15 10:58N 50°26' W 003°31'0 0.0
2020-Mar-15 09:58N 50°26' W 003°31'0 0.1
2020-Mar-15 08:58N 50°26' W 003°31'0 0.0
2020-Mar-15 03:28N 50°26' W 003°31'0 0.0
2020-Mar-15 02:28N 50°26' W 003°31'0 0.0
2020-Mar-15 00:58N 50°26' W 003°31'0 0.0
2020-Mar-14 22:28N 50°26' W 003°31'0 0.0
2020-Mar-14 21:28N 50°26' W 003°31'0 0.0
2020-Mar-14 20:58N 50°26' W 003°31'0 0.0
2020-Mar-14 19:58N 50°26' W 003°31'0 0.0
2020-Mar-14 19:28N 50°26' W 003°31'0 0.0
2020-Mar-14 17:28N 50°26' W 003°31'0 0.0
2020-Mar-14 15:58N 50°26' W 003°31'0 0.0
2020-Mar-14 14:00N 50°26' W 003°31'0 0.0
2020-Mar-14 10:28N 50°26' W 003°31'0 0.0
2020-Mar-14 08:58N 50°26' W 003°31'0 0.0
2020-Mar-14 07:28N 50°26' W 003°31'0 0.0
2020-Mar-14 06:28N 50°26' W 003°31'0 0.0
2020-Mar-14 02:58N 50°26' W 003°31'0 0.0
2020-Mar-14 02:28N 50°26' W 003°31'0 0.0
2020-Mar-14 01:28N 50°26' W 003°31'0 0.0
2020-Mar-13 22:28N 50°26' W 003°31'0 0.0
2020-Mar-13 20:28N 50°26' W 003°31'0 0.0
2020-Mar-13 18:58N 50°26' W 003°31'0 0.0
2020-Mar-13 18:28N 50°26' W 003°31'0 0.0
2020-Mar-13 17:58N 50°26' W 003°31'0 0.0
2020-Mar-13 15:58N 50°26' W 003°31'0 0.0
2020-Mar-13 11:58N 50°26' W 003°31'0 0.0
2020-Mar-13 09:28N 50°26' W 003°31'  
Track history (hours):
 
Tides and Currents Weather Stations Pressure Air Temp Water Temp Dewpoint Dewpoint Depression Visibility Wind Speed Wind Dir Waves Ship Positions

Danmark (Denmark)

Last reported at 2020-Mar-23 08:01 UTC. Time now 2020-Apr-06 12:24 UTC.
Position N 57°26' E 010°33'.
Warning: this ship's position is 14 days out of date.

Length 60 m; beam 10 m; draft 5 m.

Type: Sailing vessel. MMSI: 219500000.

Date/timePositionNaut miles runAvg speedWind from/ knotsBaromVisibWave heightAir tempDewpointWater temp
2020-Mar-23 08:01N 57°26' E 010°33'7 2.8
2020-Mar-23 05:31N 57°20' E 010°41'5 5.3
2020-Mar-23 04:31N 57°15' E 010°43'49 5.8
2020-Mar-22 20:00N 56°27' E 011°00'4 7.3
2020-Mar-22 19:30N 56°23' E 011°00'6 6.4
2020-Mar-22 18:31N 56°17' E 010°55'7 6.6
2020-Mar-22 17:31N 56°12' E 010°48'6 4.2
2020-Mar-22 16:01N 56°10' E 010°37'3 0.6
2020-Mar-22 11:50N 56°13' E 010°37'0 0.0
2020-Mar-22 08:29N 56°13' E 010°37'0 0.0
2020-Mar-22 05:59N 56°13' E 010°37'0 0.0
2020-Mar-22 04:59N 56°13' E 010°37'0 0.0
2020-Mar-22 03:26N 56°13' E 010°37'0 0.0
2020-Mar-22 02:29N 56°13' E 010°37'0 0.0
2020-Mar-21 23:29N 56°12' E 010°37'0 0.0
2020-Mar-21 22:26N 56°12' E 010°37'0 0.0
2020-Mar-21 20:29N 56°12' E 010°37'0 0.0
2020-Mar-21 19:29N 56°12' E 010°37'0 0.0
2020-Mar-21 17:59N 56°12' E 010°37'0 0.0
2020-Mar-21 17:29N 56°12' E 010°37'0 0.0
2020-Mar-21 16:29N 56°12' E 010°37'0 0.0
2020-Mar-21 13:26N 56°12' E 010°37'0 0.0
2020-Mar-21 11:26N 56°12' E 010°37'0 0.0
2020-Mar-21 09:26N 56°12' E 010°37'0 0.0
2020-Mar-21 02:59N 56°12' E 010°37'0 0.0
2020-Mar-21 02:29N 56°12' E 010°37'0 0.0
2020-Mar-21 01:59N 56°12' E 010°37'0 0.0
2020-Mar-21 01:29N 56°12' E 010°37'0 0.0
2020-Mar-21 00:59N 56°12' E 010°37'0 0.0
2020-Mar-20 23:59N 56°12' E 010°37'0 0.0
2020-Mar-20 22:59N 56°12' E 010°37'0 0.0
2020-Mar-20 21:29N 56°12' E 010°37'1 2.0
2020-Mar-20 21:01N 56°12' E 010°36'3 5.0
2020-Mar-20 20:30N 56°09' E 010°37'4 4.5
2020-Mar-20 19:30N 56°10' E 010°45'3 6.4
2020-Mar-20 19:00N 56°13' E 010°48'14 6.8
2020-Mar-20 17:01N 56°24' E 011°00'7 7.1
2020-Mar-20 15:59N 56°32' E 010°59'44 6.4
2020-Mar-20 09:00N 57°15' E 010°42'3 5.6
2020-Mar-20 08:30N 57°18' E 010°42'16 6.3
2020-Mar-20 06:00N 57°34' E 010°44'3 6.9
2020-Mar-20 05:31N 57°37' E 010°44'12 4.7
2020-Mar-20 03:00N 57°45' E 010°28'3 6.2
2020-Mar-20 02:30N 57°44' E 010°23'21 8.3
2020-Mar-19 23:55N 57°35' E 009°46'1110.3
2020-Mar-19 22:49N 57°30' E 009°28'7 9.9
2020-Mar-19 22:09N 57°26' E 009°17'2410.6
2020-Mar-19 19:55N 57°15' E 008°39'410.6
2020-Mar-19 19:30N 57°12' E 008°32'27 8.7
2020-Mar-19 16:26N 56°50' E 008°06'242 6.1
2020-Mar-18 00:32N 53°35' E 003°54'37 8.9
2020-Mar-17 20:22N 53°02' E 003°25'19 7.9
2020-Mar-17 18:00N 52°45' E 003°12'9 6.1
2020-Mar-17 16:30N 52°37' E 003°05'21 6.1
2020-Mar-17 13:01N 52°18' E 002°49'20 8.1
2020-Mar-17 10:30N 51°59' E 002°41'9 8.9
2020-Mar-17 09:30N 51°50' E 002°38'22 7.4
2020-Mar-17 06:31N 51°31' E 002°19'4 8.3
2020-Mar-17 06:01N 51°27' E 002°16'22 8.7
2020-Mar-17 03:30N 51°10' E 001°56'17 6.9
2020-Mar-17 01:00N 50°59' E 001°35'12 6.0
2020-Mar-16 23:00N 50°48' E 001°26'10 6.5
2020-Mar-16 21:30N 50°40' E 001°17'14 7.2
2020-Mar-16 19:30N 50°31' E 000°60'12 5.9
2020-Mar-16 17:31N 50°26' E 000°43'9 3.4
2020-Mar-16 14:57N 50°24' E 000°30'10 3.0
2020-Mar-16 11:48N 50°22' E 000°15'26 5.4
2020-Mar-16 07:00N 50°16' W 000°24'3 5.1
2020-Mar-16 06:27N 50°15' W 000°28'6 5.0
2020-Mar-16 05:14N 50°14' W 000°37'53 7.9
2020-Mar-15 22:30N 50°20' W 001°60'19 7.0
2020-Mar-15 19:47N 50°22' W 002°30'34 5.9
2020-Mar-15 14:00N 50°26' W 003°23'6 1.8
2020-Mar-15 10:58N 50°26' W 003°31'0 0.0
2020-Mar-15 09:58N 50°26' W 003°31'0 0.1
2020-Mar-15 08:58N 50°26' W 003°31'0 0.0
2020-Mar-15 03:28N 50°26' W 003°31'0 0.0
2020-Mar-15 02:28N 50°26' W 003°31'0 0.0
2020-Mar-15 00:58N 50°26' W 003°31'0 0.0
2020-Mar-14 22:28N 50°26' W 003°31'0 0.0
2020-Mar-14 21:28N 50°26' W 003°31'0 0.0
2020-Mar-14 20:58N 50°26' W 003°31'0 0.0
2020-Mar-14 19:58N 50°26' W 003°31'0 0.0
2020-Mar-14 19:28N 50°26' W 003°31'0 0.0
2020-Mar-14 17:28N 50°26' W 003°31'0 0.0
2020-Mar-14 15:58N 50°26' W 003°31'0 0.0
2020-Mar-14 14:00N 50°26' W 003°31'0 0.0
2020-Mar-14 10:28N 50°26' W 003°31'0 0.0
2020-Mar-14 08:58N 50°26' W 003°31'0 0.0
2020-Mar-14 07:28N 50°26' W 003°31'0 0.0
2020-Mar-14 06:28N 50°26' W 003°31'0 0.0
2020-Mar-14 02:58N 50°26' W 003°31'0 0.0
2020-Mar-14 02:28N 50°26' W 003°31'0 0.0
2020-Mar-14 01:28N 50°26' W 003°31'0 0.0
2020-Mar-13 22:28N 50°26' W 003°31'0 0.0
2020-Mar-13 20:28N 50°26' W 003°31'0 0.0
2020-Mar-13 18:58N 50°26' W 003°31'0 0.0
2020-Mar-13 18:28N 50°26' W 003°31'0 0.0
2020-Mar-13 17:58N 50°26' W 003°31'0 0.0
2020-Mar-13 15:58N 50°26' W 003°31'0 0.0
2020-Mar-13 11:58N 50°26' W 003°31'0 0.0
2020-Mar-13 09:28N 50°26' W 003°31'  

Dump ship's entire track history